Santo Domingo, Dominican Republic
Current Conditions -  °F | °C
As of 12:00 AM on Saturday 20 Dec 2014 (Local Time) from MDSD Reporting Station
Scattered Clouds Scattered Clouds  
Wind Chill: 23°   Ceiling: Unl
Heat Index: 23°   Visibility: 6mi
Dew Point: 21°   Wind: 6mph
Humidity: 88%   Direction: 360°N
Pressure: 30"   Gusts: NA
Location:  18.48°N, 69.91°W
Report Text: MDSD 200400Z 36005KT 9999 SCT018 23/21 Q1016
Loading
Personal Weather Stations






























Interactive Weather Map New forecast layout! Learn more

10-Day Weather Forecast

Advertisements
Track Severe Weather on mobile